FAQ Search Today's Posts Mark Forums Read
» Video Reviews

» Linux Archive

Linux-archive is a website aiming to archive linux email lists and to make them easily accessible for linux users/developers.


» Sponsor

» Partners

» Sponsor

Go Back   Linux Archive > Ubuntu > Ubuntu User

 
 
LinkBack Thread Tools
 
Old 05-14-2012, 06:38 PM
Hans Muecke
 
Default Cheese stopped working

Am 14.05.2012 13:18, schrieb user1:
>
>> Any ideas where to look for the problem?
> An alternative to cheese is guvcview!
>
>

Which makes the camera work again. However ... it does not solve the
problem with Cheese and - as I just discovered - Skype video stopped
working too.


--
Talk to you later ... Hans (116 to go)

2012/05/14 18:20
EDDS 141820Z 11005KT CAVOK 14/03 Q1015 NOSIG


--
ubuntu-users mailing list
ubuntu-users@lists.ubuntu.com
Modify settings or unsubscribe at: https://lists.ubuntu.com/mailman/listinfo/ubuntu-users
 

Thread Tools




All times are GMT. The time now is 07:59 PM.

VBulletin, Copyright ©2000 - 2014, Jelsoft Enterprises Ltd.
Content Relevant URLs by vBSEO ©2007, Crawlability, Inc.
Copyright 2007 - 2008, www.linux-archive.org